Time;durP1;ratioP1;P1;durP2;ratioP2;P2;SDS_P1;SDS_P2;PMS_P1;PMS_P2;Temp;Humidity;BMP_temperature;BMP_pressure;BME280_temperature;BME280_humidity;BME280_pressure;Samples;Min_cycle;Max_cycle;Signal;HPM_P1;HPM_P2
2022/04/20 00:00:34;;;;;;;5.55;5.05;;;;;;;5.12;54.85;100930.59;5046207;28;20099;-29
2022/04/20 00:03:01;;;;;;;7.22;4.85;;;;;;;5.09;54.99;100931.41;5046488;28;20028;-29
2022/04/20 00:05:26;;;;;;;6.18;5.35;;;;;;;5.05;54.75;100933.94;5052929;28;20044;-29
2022/04/20 00:07:52;;;;;;;5.57;5.07;;;;;;;5.01;54.95;100938.25;5052617;28;20035;-29
2022/04/20 00:10:17;;;;;;;4.85;4.40;;;;;;;4.98;54.73;100944.31;5052928;28;20491;-29
2022/04/20 00:12:43;;;;;;;5.70;5.00;;;;;;;4.93;54.57;100935.47;5049123;28;20040;-29
2022/04/20 00:15:09;;;;;;;5.35;4.60;;;;;;;4.88;54.64;100942.38;5052463;28;20032;-29
2022/04/20 00:17:34;;;;;;;5.60;5.07;;;;;;;4.85;54.63;100952.75;5052273;28;20249;-29
2022/04/20 00:20:00;;;;;;;6.53;5.18;;;;;;;4.80;54.93;100946.56;5048575;28;20025;-30
2022/04/20 00:22:25;;;;;;;6.10;5.43;;;;;;;4.74;55.05;100942.97;5054437;28;20509;-29
2022/04/20 00:24:51;;;;;;;5.30;4.80;;;;;;;4.72;54.68;100946.41;5051981;28;20017;-29
2022/04/20 00:27:16;;;;;;;6.30;5.03;;;;;;;4.68;54.98;100945.47;5053070;28;20037;-29
2022/04/20 00:29:42;;;;;;;5.38;4.88;;;;;;;4.63;55.52;100941.88;5053663;28;20493;-29
2022/04/20 00:32:08;;;;;;;5.65;5.13;;;;;;;4.58;55.11;100939.19;5049034;28;20035;-29
2022/04/20 00:34:33;;;;;;;6.75;4.82;;;;;;;4.57;54.90;100941.78;5049255;28;20108;-29
2022/04/20 00:36:59;;;;;;;6.13;5.13;;;;;;;4.54;55.21;100946.94;5053706;28;20146;-29
2022/04/20 00:39:24;;;;;;;5.38;4.40;;;;;;;4.52;55.47;100951.22;5050120;28;20024;-29
2022/04/20 00:41:51;;;;;;;5.25;4.80;;;;;;;4.45;55.06;100958.06;5051579;28;20048;-29
2022/04/20 00:44:16;;;;;;;6.28;4.93;;;;;;;4.40;55.31;100947.50;5049956;28;20053;-29
2022/04/20 00:46:45;;;;;;;5.57;5.03;;;;;;;4.39;55.38;100964.03;5048329;28;20047;-29
2022/04/20 00:49:11;;;;;;;9.48;5.00;;;;;;;4.34;55.02;100963.06;5049635;28;20395;-29
2022/04/20 00:51:36;;;;;;;5.22;4.72;;;;;;;4.30;55.70;100967.34;5050919;28;20154;-29
2022/04/20 00:54:01;;;;;;;5.40;4.88;;;;;;;4.25;55.21;100961.13;5052895;28;20524;-29
2022/04/20 00:56:28;;;;;;;5.72;5.13;;;;;;;4.21;55.57;100962.78;5055124;28;20035;-29
2022/04/20 00:58:54;;;;;;;6.03;4.97;;;;;;;4.18;55.50;100962.75;5050946;28;20033;-29
2022/04/20 01:01:20;;;;;;;5.22;4.72;;;;;;;4.13;55.56;100951.31;5050488;28;20077;-29
2022/04/20 01:03:45;;;;;;;6.15;5.38;;;;;;;4.09;55.71;100960.81;5050409;28;20020;-29
2022/04/20 01:06:11;;;;;;;4.90;4.50;;;;;;;4.06;55.37;100970.28;5051530;28;20111;-29
2022/04/20 01:08:36;;;;;;;5.15;4.63;;;;;;;4.04;55.79;100966.78;5054943;28;20040;-29
2022/04/20 01:11:02;;;;;;;5.50;5.00;;;;;;;3.98;56.00;100957.94;5050235;28;20017;-29
2022/04/20 01:13:28;;;;;;;6.07;4.82;;;;;;;3.95;56.05;100965.72;5053392;28;20537;-30
2022/04/20 01:15:53;;;;;;;5.00;4.55;;;;;;;3.91;55.41;100948.22;5056422;28;20032;-29
2022/04/20 01:18:19;;;;;;;6.20;5.15;;;;;;;3.89;55.65;100960.34;5056052;28;20024;-29
2022/04/20 01:20:44;;;;;;;5.43;4.93;;;;;;;3.84;55.96;100965.44;5053317;28;20075;-29
2022/04/20 01:23:13;;;;;;;5.45;4.93;;;;;;;3.81;56.10;100959.28;5056898;28;20058;-29
2022/04/20 01:25:39;;;;;;;5.95;5.38;;;;;;;3.76;56.25;100955.72;5048338;28;20024;-29
2022/04/20 01:28:05;;;;;;;6.18;5.07;;;;;;;3.74;56.44;100960.00;5059870;28;20378;-29
2022/04/20 01:30:31;;;;;;;6.82;5.65;;;;;;;3.66;56.37;100955.47;5061689;28;20134;-29
2022/04/20 01:32:57;;;;;;;5.35;4.85;;;;;;;3.67;56.46;100962.44;5064557;28;20108;-29
2022/04/20 01:35:23;;;;;;;5.60;5.10;;;;;;;3.62;56.65;100956.25;5061029;28;20044;-30
2022/04/20 01:37:50;;;;;;;5.88;5.13;;;;;;;3.59;56.56;100956.16;5061368;28;20040;-30
2022/04/20 01:40:15;;;;;;;6.18;5.05;;;;;;;3.55;56.79;100951.72;5055309;28;20054;-31
2022/04/20 01:42:41;;;;;;;6.18;4.88;;;;;;;3.53;56.71;100951.69;5059022;28;20025;-29
2022/04/20 01:45:06;;;;;;;5.75;5.05;;;;;;;3.50;56.57;100953.34;5055502;28;20028;-29
2022/04/20 01:47:32;;;;;;;6.13;5.25;;;;;;;3.46;56.68;100948.03;5060237;28;20031;-29
2022/04/20 01:49:57;;;;;;;6.57;5.80;;;;;;;3.44;56.54;100947.13;5053809;28;20025;-29
2022/04/20 01:52:22;;;;;;;8.60;5.05;;;;;;;3.40;56.57;100941.81;5050632;28;20021;-29
2022/04/20 01:54:48;;;;;;;6.00;4.80;;;;;;;3.38;57.02;100936.56;5049660;28;20036;-29
2022/04/20 01:57:13;;;;;;;5.22;4.78;;;;;;;3.36;56.68;100940.84;5051502;28;20040;-30
2022/04/20 01:59:39;;;;;;;8.95;5.18;;;;;;;3.33;56.82;100951.19;5048441;28;20525;-29
2022/04/20 02:04:48;;;;;;;5.57;5.07;;;;;;;3.27;56.97;100945.84;5062710;28;20079;-29
2022/04/20 02:07:14;;;;;;;8.02;5.15;;;;;;;3.24;56.82;100940.53;5060825;28;20111;-29
2022/04/20 02:09:39;;;;;;;5.65;5.15;;;;;;;3.20;56.89;100943.06;5062641;28;20034;-29
2022/04/20 02:12:05;;;;;;;5.93;5.30;;;;;;;3.18;56.70;100938.66;5049562;28;20459;-29
2022/04/20 02:14:30;;;;;;;7.25;4.80;;;;;;;3.16;56.70;100928.19;5048582;28;20433;-29
2022/04/20 02:16:56;;;;;;;7.10;5.22;;;;;;;3.13;56.96;100937.66;5049199;28;20021;-29
2022/04/20 02:19:21;;;;;;;6.15;5.55;;;;;;;3.10;56.93;100933.22;5049241;28;20499;-29
2022/04/20 02:21:47;;;;;;;5.60;5.05;;;;;;;3.06;56.75;100926.16;5046952;28;20037;-29
2022/04/20 02:24:14;;;;;;;6.45;5.32;;;;;;;3.04;57.38;100928.72;5046803;28;20021;-29
2022/04/20 02:26:40;;;;;;;6.60;5.93;;;;;;;3.03;57.23;100931.31;5046332;28;20020;-29
2022/04/20 02:29:06;;;;;;;6.03;5.43;;;;;;;3.02;57.11;100926.94;5054753;28;20609;-29
2022/04/20 02:31:31;;;;;;;6.47;5.70;;;;;;;2.98;57.07;100928.59;5047067;28;20107;-30
2022/04/20 02:33:57;;;;;;;6.25;5.38;;;;;;;2.96;57.16;100935.47;5049141;28;20071;-29
2022/04/20 02:36:22;;;;;;;6.78;6.18;;;;;;;2.95;57.14;100939.81;5050673;28;20261;-29
2022/04/20 02:38:48;;;;;;;6.95;6.20;;;;;;;2.92;57.39;100938.84;5049515;28;20115;-29
2022/04/20 02:41:14;;;;;;;6.07;5.47;;;;;;;2.91;57.17;100932.78;5049712;28;20024;-29
2022/04/20 02:43:39;;;;;;;6.53;5.93;;;;;;;2.88;57.17;100942.22;5049765;28;20036;-30
2022/04/20 02:46:05;;;;;;;5.80;5.30;;;;;;;2.85;57.24;100931.69;5045886;28;20025;-29
2022/04/20 02:48:31;;;;;;;6.38;5.65;;;;;;;2.82;57.30;100935.09;5048298;28;20141;-29
2022/04/20 02:50:56;;;;;;;6.97;6.28;;;;;;;2.80;57.41;100939.41;5049236;28;20159;-29
2022/04/20 02:53:22;;;;;;;5.97;5.40;;;;;;;2.79;57.16;100932.41;5049306;28;20123;-29
2022/04/20 02:55:47;;;;;;;6.15;5.65;;;;;;;2.74;57.31;100924.50;5049769;28;20048;-29
2022/04/20 02:58:13;;;;;;;6.65;5.22;;;;;;;2.73;57.75;100921.84;5048030;28;20027;-29
2022/04/20 03:00:39;;;;;;;6.40;5.80;;;;;;;2.72;57.61;100925.28;5047844;28;20448;-29
2022/04/20 03:03:05;;;;;;;7.13;6.47;;;;;;;2.68;57.25;100922.59;5048510;28;20032;-29
2022/04/20 03:05:30;;;;;;;6.05;5.50;;;;;;;2.66;57.70;100915.56;5048565;28;20436;-29
2022/04/20 03:07:56;;;;;;;6.47;5.88;;;;;;;2.63;57.57;100916.38;5050011;28;20064;-29
2022/04/20 03:10:23;;;;;;;5.85;5.25;;;;;;;2.62;57.82;100922.44;5050133;28;20025;-29
2022/04/20 03:12:49;;;;;;;6.35;5.32;;;;;;;2.62;57.65;100918.94;5048987;28;20028;-29
2022/04/20 03:15:15;;;;;;;5.78;5.28;;;;;;;2.59;57.60;100917.13;5048861;28;20116;-29
2022/04/20 03:17:41;;;;;;;6.15;5.65;;;;;;;2.56;57.83;100914.44;5059675;28;20123;-29
2022/04/20 03:20:07;;;;;;;6.20;5.60;;;;;;;2.52;57.71;100916.09;5053701;28;20561;-29
2022/04/20 03:22:32;;;;;;;5.82;5.22;;;;;;;2.52;57.93;100917.78;5063224;28;20040;-29
2022/04/20 03:24:57;;;;;;;7.35;6.22;;;;;;;2.50;57.73;100914.28;5063309;28;20016;-29
2022/04/20 03:27:23;;;;;;;6.13;5.63;;;;;;;2.49;58.05;100912.50;5048159;28;20143;-29
2022/04/20 03:29:48;;;;;;;7.63;5.70;;;;;;;2.46;57.91;100917.63;5049240;28;20126;-29
2022/04/20 03:32:15;;;;;;;6.90;6.15;;;;;;;2.42;57.88;100916.66;5049748;28;20020;-29
2022/04/20 03:34:40;;;;;;;6.20;5.50;;;;;;;2.40;57.70;100924.41;5048569;28;20029;-29
2022/04/20 03:37:07;;;;;;;5.97;5.43;;;;;;;2.38;57.68;100918.31;5047709;28;20036;-29
2022/04/20 03:39:33;;;;;;;5.55;5.05;;;;;;;2.37;57.86;100919.13;5048449;28;20107;-29
2022/04/20 03:41:59;;;;;;;6.50;5.72;;;;;;;2.35;58.03;100922.53;5042297;28;20243;-29
2022/04/20 03:44:24;;;;;;;5.88;5.28;;;;;;;2.34;58.15;100929.47;5049283;28;20426;-29
2022/04/20 03:46:51;;;;;;;5.85;5.35;;;;;;;2.32;58.17;100925.94;5051015;28;20091;-29
2022/04/20 03:49:16;;;;;;;6.88;6.07;;;;;;;2.30;58.05;100928.47;5061598;28;20024;-29
2022/04/20 03:51:43;;;;;;;6.22;5.63;;;;;;;2.27;58.33;100922.31;5062906;28;20017;-29
2022/04/20 03:54:08;;;;;;;6.38;5.13;;;;;;;2.26;58.14;100920.53;5060304;28;20047;-29
2022/04/20 03:59:18;;;;;;;6.22;5.43;;;;;;;2.24;58.10;100930.03;5048968;28;20106;-29
2022/04/20 04:01:44;;;;;;;6.50;5.85;;;;;;;2.20;58.36;100928.19;5052182;28;20486;-29
2022/04/20 04:04:10;;;;;;;7.95;6.18;;;;;;;2.19;58.19;100932.50;5049229;28;20025;-29
2022/04/20 04:06:35;;;;;;;12.20;8.43;;;;;;;2.17;58.55;100924.63;5051426;28;20501;-29
2022/04/20 04:09:00;;;;;;;13.93;9.98;;;;;;;2.17;58.32;100927.25;5052453;28;20025;-29
2022/04/20 04:11:26;;;;;;;13.00;11.55;;;;;;;2.15;58.50;100934.13;5055122;28;20021;-29
2022/04/20 04:13:51;;;;;;;13.60;12.02;;;;;;;2.14;58.28;100939.28;5053379;28;20029;-29
2022/04/20 04:16:17;;;;;;;13.63;11.48;;;;;;;2.14;58.28;100957.50;5051992;28;20029;-29
2022/04/20 04:18:42;;;;;;;13.45;11.30;;;;;;;2.12;58.27;100949.66;5053038;28;20025;-29
2022/04/20 04:21:08;;;;;;;11.45;10.23;;;;;;;2.13;58.33;100951.41;5052137;28;20032;-29
2022/04/20 04:23:33;;;;;;;10.80;9.70;;;;;;;2.12;58.44;100944.44;5051849;28;20773;-29
2022/04/20 04:25:59;;;;;;;9.50;8.60;;;;;;;2.10;58.36;100948.69;5053301;28;20028;-29
2022/04/20 04:28:25;;;;;;;12.05;9.05;;;;;;;2.10;58.57;100951.31;5051137;28;20055;-29
2022/04/20 04:30:50;;;;;;;10.57;9.40;;;;;;;2.09;58.67;100953.84;5051399;28;20534;-29
2022/04/20 04:33:16;;;;;;;10.00;8.82;;;;;;;2.09;58.46;100941.75;5051878;28;20037;-29
2022/04/20 04:35:41;;;;;;;10.25;8.13;;;;;;;2.10;58.69;100943.50;5053048;28;20029;-29
2022/04/20 04:38:07;;;;;;;9.15;7.82;;;;;;;2.08;58.60;100937.38;5054271;28;20028;-29
2022/04/20 04:40:32;;;;;;;8.63;7.63;;;;;;;2.09;58.59;100935.66;5053837;28;20492;-29
2022/04/20 04:42:58;;;;;;;8.73;7.80;;;;;;;2.08;58.92;100944.28;5052391;28;20104;-29
2022/04/20 04:50:51;;;;;;;8.05;7.25;;;;;;;2.08;58.39;100941.69;5052910;28;20086;-29
2022/04/20 04:53:17;;;;;;;7.60;6.85;;;;;;;2.08;58.85;100945.19;5052169;28;20021;-30
2022/04/20 04:55:42;;;;;;;7.18;6.35;;;;;;;2.08;58.82;100953.00;5051544;28;20475;-29
2022/04/20 04:58:08;;;;;;;8.07;7.22;;;;;;;2.09;58.59;100944.34;5051259;28;20029;-29
2022/04/20 05:00:33;;;;;;;8.05;6.63;;;;;;;2.10;58.79;100946.09;5052665;28;20051;-31
2022/04/20 05:02:59;;;;;;;7.22;6.53;;;;;;;2.09;58.75;100938.25;5050085;28;20059;-29
2022/04/20 05:05:24;;;;;;;7.93;6.60;;;;;;;2.12;59.04;100949.66;5052208;28;20037;-29
2022/04/20 05:07:54;;;;;;;7.05;6.32;;;;;;;2.12;59.37;100949.66;5051044;28;20494;-29
2022/04/20 05:10:21;;;;;;;7.32;6.60;;;;;;;2.14;59.04;100957.50;5050675;28;20029;-30
2022/04/20 05:12:47;;;;;;;7.40;6.57;;;;;;;2.14;59.44;100942.75;5050242;28;20020;-29
2022/04/20 05:15:13;;;;;;;6.63;5.88;;;;;;;2.16;59.21;100951.50;5052363;28;20453;-29
2022/04/20 05:17:38;;;;;;;6.13;5.50;;;;;;;2.18;59.58;100947.25;5050080;28;20021;-29
2022/04/20 05:20:04;;;;;;;6.35;5.75;;;;;;;2.22;60.01;100947.31;5050883;28;20399;-29
2022/04/20 05:22:30;;;;;;;6.05;5.45;;;;;;;2.24;60.13;100949.16;5051481;28;20040;-29
2022/04/20 05:24:56;;;;;;;6.65;6.00;;;;;;;2.25;59.81;100945.69;5051090;28;20021;-29
2022/04/20 05:27:22;;;;;;;6.95;6.25;;;;;;;2.30;59.87;100948.41;5051642;28;20029;-29
2022/04/20 05:29:47;;;;;;;9.38;5.95;;;;;;;2.32;60.22;100951.97;5051106;28;20033;-29
2022/04/20 05:32:13;;;;;;;8.48;6.63;;;;;;;2.35;59.75;100961.56;5049092;28;20028;-29
2022/04/20 05:34:39;;;;;;;8.90;5.80;;;;;;;2.38;60.13;100967.78;5050337;28;20028;-29
2022/04/20 05:42:33;;;;;;;7.45;6.50;;;;;;;2.49;61.01;100980.19;5048574;28;20036;-29
2022/04/20 05:44:58;;;;;;;8.02;6.30;;;;;;;2.53;61.49;100987.25;5052308;28;20025;-29
2022/04/20 05:47:24;;;;;;;6.28;5.57;;;;;;;2.59;61.99;100983.94;5050280;28;20035;-29
2022/04/20 05:49:49;;;;;;;6.20;5.50;;;;;;;2.61;62.25;100975.38;5051787;28;20021;-29
2022/04/20 05:52:15;;;;;;;7.53;5.72;;;;;;;2.66;61.98;100970.25;5050964;28;20029;-29
2022/04/20 05:54:40;;;;;;;10.00;6.10;;;;;;;2.69;62.16;100979.06;5051413;28;20025;-29
2022/04/20 05:57:05;;;;;;;9.25;6.47;;;;;;;2.75;62.69;100973.16;5049868;28;20048;-29
2022/04/20 05:59:31;;;;;;;7.00;6.28;;;;;;;2.81;62.63;100975.03;5052004;28;20017;-29
2022/04/20 06:01:56;;;;;;;7.10;5.65;;;;;;;2.84;62.41;100975.13;5051002;28;20021;-29
2022/04/20 06:04:23;;;;;;;7.05;6.07;;;;;;;2.91;62.71;100984.88;5049627;28;20025;-29
2022/04/20 06:06:49;;;;;;;6.57;5.63;;;;;;;2.97;62.21;100983.28;5051322;28;20020;-29
2022/04/20 06:09:14;;;;;;;6.90;6.30;;;;;;;3.02;62.42;100986.88;5054500;28;20505;-29
2022/04/20 06:11:40;;;;;;;7.00;5.75;;;;;;;3.08;62.66;100992.25;5050395;28;20056;-29
2022/04/20 06:14:06;;;;;;;5.88;5.28;;;;;;;3.13;62.45;100998.47;5050211;28;20060;-29
2022/04/20 06:16:31;;;;;;;6.93;6.25;;;;;;;3.19;62.83;100985.63;5050685;28;20055;-29
2022/04/20 06:18:57;;;;;;;6.82;6.13;;;;;;;3.26;63.12;100990.97;5050971;28;20037;-29
2022/04/20 06:21:22;;;;;;;6.88;6.18;;;;;;;3.32;63.55;100983.31;5051055;28;20043;-29
2022/04/20 06:23:48;;;;;;;6.95;6.18;;;;;;;3.38;63.22;100980.88;5051233;28;20035;-29
2022/04/20 06:26:13;;;;;;;6.90;5.85;;;;;;;3.46;63.15;100983.66;5050975;28;20013;-29
2022/04/20 06:28:39;;;;;;;9.65;6.50;;;;;;;3.51;63.38;100976.84;5050182;28;20017;-29
2022/04/20 06:31:05;;;;;;;6.90;6.30;;;;;;;3.57;63.56;100986.56;5050165;28;20112;-29
2022/04/20 06:33:31;;;;;;;9.07;6.80;;;;;;;3.65;63.21;100978.91;5050561;28;20112;-29
2022/04/20 06:35:58;;;;;;;7.38;6.68;;;;;;;3.71;63.17;100977.31;5051312;28;20020;-29
2022/04/20 06:38:23;;;;;;;10.40;7.32;;;;;;;3.79;62.97;100971.41;5051746;28;20444;-29
2022/04/20 06:40:49;;;;;;;7.35;6.60;;;;;;;3.85;62.43;100974.16;5048958;28;20529;-29
2022/04/20 06:43:14;;;;;;;6.57;5.95;;;;;;;3.91;62.25;100970.81;5050214;28;20419;-29
2022/04/20 06:45:40;;;;;;;7.40;6.25;;;;;;;3.97;62.55;100976.19;5050867;28;21291;-29
2022/04/20 06:48:05;;;;;;;6.47;5.80;;;;;;;4.04;62.13;100977.22;5049528;28;20078;-29
2022/04/20 06:50:31;;;;;;;7.97;6.00;;;;;;;4.10;61.94;100973.00;5050469;28;20031;-29
2022/04/20 06:58:35;;;;;;;7.50;5.15;;;;;;;4.31;62.14;100969.13;5049394;28;20498;-29
2022/04/20 07:01:01;;;;;;;7.65;6.85;;;;;;;4.39;61.45;100968.38;5049467;28;20052;-30
2022/04/20 07:03:27;;;;;;;6.90;6.13;;;;;;;4.46;62.03;100971.16;5050862;28;20019;-29
2022/04/20 07:05:52;;;;;;;7.13;6.00;;;;;;;4.54;62.25;100968.72;5050182;28;20029;-31
2022/04/20 07:08:19;;;;;;;9.20;5.80;;;;;;;4.64;62.46;100967.19;5050241;28;20029;-29
2022/04/20 07:10:44;;;;;;;7.30;6.07;;;;;;;4.72;63.00;100962.97;5050661;28;20039;-29
2022/04/20 07:13:12;;;;;;;7.07;5.82;;;;;;;4.80;63.14;100959.63;5050041;28;20021;-29
2022/04/20 07:15:37;;;;;;;7.07;5.55;;;;;;;4.87;61.73;100956.28;5049207;28;20039;-29
2022/04/20 07:18:04;;;;;;;5.82;5.30;;;;;;;4.96;61.96;100966.91;5050130;28;20017;-29
2022/04/20 07:20:29;;;;;;;8.40;6.18;;;;;;;5.01;62.05;100974.84;5049856;28;20017;-29
2022/04/20 07:22:55;;;;;;;6.75;6.05;;;;;;;5.06;62.02;100972.28;5048688;28;20031;-29
2022/04/20 07:25:20;;;;;;;5.70;5.20;;;;;;;5.16;61.86;100968.16;5050271;28;20036;-29
2022/04/20 07:27:48;;;;;;;7.95;6.28;;;;;;;5.22;61.65;100976.97;5049742;28;20044;-29
2022/04/20 07:30:14;;;;;;;6.57;5.95;;;;;;;5.29;62.10;100969.22;5049868;28;20087;-29
2022/04/20 07:32:40;;;;;;;7.57;6.00;;;;;;;5.36;61.78;100965.84;5049565;28;20040;-30
2022/04/20 07:35:05;;;;;;;8.07;5.95;;;;;;;5.45;61.43;100968.66;5050687;28;20021;-29
2022/04/20 07:37:31;;;;;;;7.15;5.50;;;;;;;5.50;62.33;100964.34;5049719;28;20043;-29
2022/04/20 07:39:56;;;;;;;6.18;5.15;;;;;;;5.60;60.83;100961.91;5049631;28;20017;-29
2022/04/20 07:42:22;;;;;;;7.40;6.63;;;;;;;5.63;62.03;100972.41;5053705;28;20087;-29
2022/04/20 07:44:47;;;;;;;7.57;6.85;;;;;;;5.73;61.90;100973.41;5052737;28;20701;-29
2022/04/20 07:47:13;;;;;;;7.57;6.80;;;;;;;5.81;62.20;100968.31;5053843;28;20453;-29
2022/04/20 07:52:23;;;;;;;7.65;6.25;;;;;;;5.92;61.82;100982.47;5053687;28;20124;-29
2022/04/20 07:54:48;;;;;;;7.32;6.28;;;;;;;6.02;61.23;100981.75;5053380;28;20024;-29
2022/04/20 07:57:15;;;;;;;9.90;6.65;;;;;;;6.12;60.92;100979.28;5053614;28;20032;-29
2022/04/20 07:59:41;;;;;;;7.15;6.05;;;;;;;6.18;60.93;100974.13;5053113;28;20039;-29
2022/04/20 08:02:07;;;;;;;6.38;5.78;;;;;;;6.25;60.63;100968.13;5053739;28;20033;-29
2022/04/20 08:04:32;;;;;;;7.40;5.85;;;;;;;6.32;61.06;100969.09;5053348;28;20033;-29
2022/04/20 08:06:58;;;;;;;6.75;5.90;;;;;;;6.41;60.69;100976.19;5053144;28;20048;-29
2022/04/20 08:09:24;;;;;;;6.78;6.03;;;;;;;6.44;61.15;100965.75;5053719;28;20124;-29
2022/04/20 08:11:50;;;;;;;6.63;6.03;;;;;;;6.56;60.63;100964.16;5053563;28;20097;-29
2022/04/20 08:14:15;;;;;;;6.60;6.00;;;;;;;6.64;60.61;100967.75;5053334;28;20061;-29
2022/04/20 08:16:43;;;;;;;6.70;6.00;;;;;;;6.72;61.34;100965.19;5052562;28;20246;-29
2022/04/20 08:19:08;;;;;;;6.32;5.72;;;;;;;6.76;61.32;100964.34;5053715;28;20040;-29
2022/04/20 08:21:34;;;;;;;8.00;6.20;;;;;;;6.89;60.51;100962.75;5052905;28;20025;-29
2022/04/20 08:23:59;;;;;;;8.40;5.65;;;;;;;6.95;60.62;100964.56;5053489;28;20151;-29
2022/04/20 08:26:25;;;;;;;6.68;5.18;;;;;;;7.05;60.52;100961.19;5051670;28;20075;-29
2022/04/20 08:28:50;;;;;;;6.18;5.57;;;;;;;7.12;60.35;100956.88;5053106;28;20566;-29
2022/04/20 08:31:16;;;;;;;6.05;5.45;;;;;;;7.23;60.60;100957.84;5053056;28;20029;-29
2022/04/20 08:33:42;;;;;;;8.38;6.65;;;;;;;7.30;60.65;100954.41;5053169;28;20021;-29
2022/04/20 08:36:08;;;;;;;7.90;6.55;;;;;;;7.39;60.58;100953.63;5052998;28;20035;-29
2022/04/20 08:38:33;;;;;;;9.93;7.57;;;;;;;7.48;60.69;100944.97;5052741;28;20021;-29
2022/04/20 08:41:00;;;;;;;8.68;6.93;;;;;;;7.58;60.43;100951.16;5050260;28;20021;-29
2022/04/20 08:43:27;;;;;;;9.68;6.65;;;;;;;7.68;60.08;100949.47;5051853;28;20021;-29
2022/04/20 08:45:54;;;;;;;9.68;6.90;;;;;;;7.74;59.82;100946.03;5048698;28;20041;-30
2022/04/20 08:48:20;;;;;;;8.02;6.85;;;;;;;7.78;60.73;100951.31;5051528;28;20079;-29
2022/04/20 08:50:46;;;;;;;7.70;6.18;;;;;;;7.90;60.69;100949.63;5052048;28;20021;-29
2022/04/20 08:53:11;;;;;;;6.90;6.20;;;;;;;7.97;60.41;100946.16;5051318;28;20044;-29
2022/04/20 08:55:36;;;;;;;7.78;6.43;;;;;;;8.03;60.36;100948.81;5052662;28;20497;-29
2022/04/20 08:58:04;;;;;;;8.45;6.47;;;;;;;8.09;60.67;100954.13;5052900;28;20017;-29
2022/04/20 09:00:30;;;;;;;6.82;6.10;;;;;;;8.20;60.36;100953.28;5052780;28;20051;-29
2022/04/20 09:02:57;;;;;;;8.68;7.25;;;;;;;8.27;60.55;100943.72;5052437;28;20033;-29
2022/04/20 09:05:28;;;;;;;10.93;6.93;;;;;;;8.35;60.69;100942.00;5051336;28;20023;-29
2022/04/20 09:07:54;;;;;;;7.10;6.28;;;;;;;8.43;60.18;100942.00;5049648;28;20379;-30
2022/04/20 09:10:20;;;;;;;8.40;6.70;;;;;;;8.50;59.81;100942.94;5052455;28;20032;-29
2022/04/20 09:12:46;;;;;;;8.85;7.15;;;;;;;8.56;59.66;100941.22;5050693;28;20376;-29
2022/04/20 09:15:16;;;;;;;9.32;8.43;;;;;;;8.60;60.36;100943.00;5028744;28;20018;-29
2022/04/20 09:17:47;;;;;;;9.07;6.63;;;;;;;8.68;60.01;100944.78;5052362;28;20025;-29
2022/04/20 09:20:17;;;;;;;8.38;6.75;;;;;;;8.71;59.74;100948.28;5049821;28;20028;-29
2022/04/20 09:22:58;;;;;;;7.93;6.63;;;;;;;8.83;59.16;100954.44;5050387;28;20633;-29
2022/04/20 09:25:29;;;;;;;8.52;7.03;;;;;;;8.92;59.21;100956.22;5051207;28;20070;-29
2022/04/20 09:27:55;;;;;;;7.85;6.80;;;;;;;8.97;59.71;100952.72;5050510;28;20028;-29
2022/04/20 09:30:20;;;;;;;9.75;7.30;;;;;;;9.02;59.34;100944.84;5052447;28;20021;-29
2022/04/20 09:32:46;;;;;;;9.73;7.43;;;;;;;9.08;59.28;100946.63;5054541;28;20027;-29
2022/04/20 09:35:14;;;;;;;9.27;6.85;;;;;;;9.18;59.29;100953.66;5051548;28;20055;-29
2022/04/20 09:37:41;;;;;;;8.27;6.88;;;;;;;9.23;58.89;100951.00;5051651;28;20387;-29
2022/04/20 09:40:13;;;;;;;8.38;6.25;;;;;;;9.29;59.06;100945.75;5050449;28;20482;-29
2022/04/20 09:42:58;;;;;;;7.53;6.60;;;;;;;9.39;58.36;100940.47;5050050;28;20032;-29
2022/04/20 09:45:24;;;;;;;9.25;6.88;;;;;;;9.45;59.08;100946.66;5051177;28;20021;-29
2022/04/20 09:50:33;;;;;;;8.07;6.65;;;;;;;9.60;59.09;100939.59;5052214;28;20090;-29
2022/04/20 09:53:01;;;;;;;8.15;6.85;;;;;;;9.68;59.15;100932.59;5054178;28;20471;-29
2022/04/20 09:55:30;;;;;;;9.30;6.60;;;;;;;9.77;58.83;100929.03;5052048;28;20048;-29
2022/04/20 09:58:19;;;;;;;9.32;7.15;;;;;;;9.87;59.11;100914.97;5049217;28;20045;-29
2022/04/20 10:00:46;;;;;;;8.48;6.30;;;;;;;9.98;59.35;100924.63;5049715;28;20024;-29
2022/04/20 10:03:24;;;;;;;7.88;6.32;;;;;;;10.09;58.89;100925.47;5051340;28;20100;-29
2022/04/20 10:05:49;;;;;;;9.48;6.55;;;;;;;10.21;58.69;100928.94;5052929;28;20088;-29
2022/04/20 10:08:15;;;;;;;9.73;7.28;;;;;;;10.31;58.92;100919.25;5052333;28;20128;-29
2022/04/20 10:10:42;;;;;;;9.65;6.90;;;;;;;10.42;58.73;100920.09;5050669;28;20170;-29
2022/04/20 10:13:09;;;;;;;9.90;7.18;;;;;;;10.54;58.58;100927.09;5050103;28;20024;-29
2022/04/20 10:18:21;;;;;;;8.32;7.15;;;;;;;10.82;58.77;100923.41;5048268;28;20040;-29
2022/04/20 10:20:51;;;;;;;7.72;6.95;;;;;;;10.94;58.97;100925.13;5049389;28;20025;-29
2022/04/20 10:23:19;;;;;;;7.43;6.63;;;;;;;11.09;58.54;100913.56;5046818;28;20029;-29
2022/04/20 10:25:45;;;;;;;10.10;6.78;;;;;;;11.23;58.66;100910.81;5050139;28;20019;-29
2022/04/20 10:28:17;;;;;;;13.43;7.55;;;;;;;11.37;58.34;100900.16;5050769;28;20017;-29
2022/04/20 10:30:45;;;;;;;9.00;6.72;;;;;;;11.54;58.44;100905.28;5050656;28;20029;-30
2022/04/20 10:33:23;;;;;;;8.80;6.90;;;;;;;11.64;58.37;100893.72;5051108;28;20129;-29
2022/04/20 10:35:54;;;;;;;7.80;7.00;;;;;;;11.84;58.37;100897.06;5050670;28;20021;-29
2022/04/20 10:38:20;;;;;;;9.98;6.70;;;;;;;11.96;57.73;100899.56;5050744;28;20479;-29
2022/04/20 10:41:05;;;;;;;9.32;6.82;;;;;;;12.09;57.21;100897.69;5052641;28;20028;-29
2022/04/20 10:43:31;;;;;;;9.15;7.50;;;;;;;12.23;57.31;100888.69;5050242;28;20025;-29
2022/04/20 10:46:14;;;;;;;7.43;6.68;;;;;;;12.37;57.04;100897.31;5050911;28;20374;-29
2022/04/20 10:48:57;;;;;;;6.43;5.75;;;;;;;12.48;56.54;100893.69;5050472;28;20070;-29
2022/04/20 10:51:46;;;;;;;6.97;5.82;;;;;;;12.60;55.98;100888.19;5048239;28;20533;-29
2022/04/20 10:54:17;;;;;;;9.95;7.00;;;;;;;12.69;55.71;100881.91;5050655;28;20049;-29
2022/04/20 10:56:48;;;;;;;;;;;;;;;12.78;55.50;100876.50;5050385;28;20063;-30
2022/04/20 10:59:14;;;;;;;;;;;;;;;12.88;55.40;100885.19;5050308;28;19972;-29
2022/04/20 11:01:58;;;;;;;6.25;5.65;;;;;;;12.98;55.47;100883.25;5052465;28;19947;-29
2022/04/20 11:04:44;;;;;;;7.47;6.60;;;;;;;13.07;55.12;100882.22;5048501;28;20062;-29
2022/04/20 11:07:09;;;;;;;8.88;7.05;;;;;;;13.12;54.83;100875.09;5050320;28;20025;-29
2022/04/20 11:10:05;;;;;;;7.80;6.03;;;;;;;13.20;54.58;100878.47;5050127;28;20036;-29
2022/04/20 11:21:15;;;;;;;7.00;5.38;;;;;;;13.37;53.83;100874.66;5051541;28;20032;-29
2022/04/20 11:24:07;;;;;;;6.00;5.40;;;;;;;13.40;54.14;100876.41;5054030;28;20017;-29
2022/04/20 11:26:41;;;;;;;6.05;5.55;;;;;;;13.41;53.93;100865.75;5052188;28;20021;-29
2022/04/20 11:29:12;;;;;;;6.35;5.70;;;;;;;13.40;53.20;100864.00;5053774;28;20046;-29
2022/04/20 11:31:40;;;;;;;;;;;;;;;13.42;53.11;100861.31;5054255;28;20024;-29
2022/04/20 11:34:06;;;;;;;6.68;6.03;;;;;;;13.41;53.24;100860.44;5054552;28;20011;-29
2022/04/20 11:36:32;;;;;;;6.22;5.63;;;;;;;13.41;53.81;100860.44;5061215;28;20017;-29
2022/04/20 11:38:58;;;;;;;5.45;4.95;;;;;;;13.42;52.92;100856.03;5064039;28;20025;-29
2022/04/20 11:41:24;;;;;;;5.50;5.00;;;;;;;13.42;53.49;100854.25;5071274;28;20467;-29
2022/04/20 11:43:49;;;;;;;7.63;5.47;;;;;;;13.41;53.82;100857.78;5070052;28;20028;-29
2022/04/20 11:46:16;;;;;;;8.40;5.72;;;;;;;13.42;52.69;100850.72;5063671;28;20017;-29
2022/04/20 11:48:55;;;;;;;5.95;5.07;;;;;;;13.42;53.64;100856.03;5053223;28;20386;-29
2022/04/20 11:51:25;;;;;;;4.43;4.03;;;;;;;13.43;54.15;100855.13;5056342;28;20049;-29
2022/04/20 11:53:52;;;;;;;6.03;5.40;;;;;;;13.42;53.86;100853.38;5054124;28;20063;-29
2022/04/20 11:56:31;;;;;;;5.65;5.00;;;;;;;13.41;53.27;100849.00;5052227;28;20036;-29
2022/04/20 11:58:58;;;;;;;5.38;4.88;;;;;;;13.39;53.99;100850.78;5053842;28;20025;-29
2022/04/20 12:01:25;;;;;;;6.95;4.82;;;;;;;13.39;53.56;100846.38;5053738;28;20036;-29
2022/04/20 12:03:51;;;;;;;6.53;4.90;;;;;;;13.38;53.71;100849.94;5053693;28;20048;-29
2022/04/20 12:06:18;;;;;;;5.15;4.65;;;;;;;13.37;54.10;100848.16;5053724;28;20021;-30
2022/04/20 12:08:44;;;;;;;5.45;4.90;;;;;;;13.37;53.11;100848.16;5052734;28;20025;-29